sensor_id;sensor_type;location;lat;lon;timestamp;temperature;humidity
29917;DHT22;16786;49.466;11.068;2023-05-20T00:01:49;15.00;99.90
29917;DHT22;16786;49.466;11.068;2023-05-20T00:04:16;15.00;99.90
29917;DHT22;16786;49.466;11.068;2023-05-20T00:06:44;15.00;99.90
29917;DHT22;16786;49.466;11.068;2023-05-20T00:09:11;15.00;99.90
29917;DHT22;16786;49.466;11.068;2023-05-20T00:11:39;14.90;99.90
29917;DHT22;16786;49.466;11.068;2023-05-20T00:14:06;14.90;99.90
29917;DHT22;16786;49.466;11.068;2023-05-20T00:16:34;14.90;99.90
29917;DHT22;16786;49.466;11.068;2023-05-20T00:19:01;15.00;99.90
29917;DHT22;16786;49.466;11.068;2023-05-20T00:21:29;15.00;99.90
29917;DHT22;16786;49.466;11.068;2023-05-20T00:23:57;15.00;99.90
29917;DHT22;16786;49.466;11.068;2023-05-20T00:26:24;15.00;99.90
29917;DHT22;16786;49.466;11.068;2023-05-20T00:28:54;15.00;99.90
29917;DHT22;16786;49.466;11.068;2023-05-20T00:31:21;15.00;99.90
29917;DHT22;16786;49.466;11.068;2023-05-20T00:33:49;15.10;99.90
29917;DHT22;16786;49.466;11.068;2023-05-20T00:36:16;15.10;99.90
29917;DHT22;16786;49.466;11.068;2023-05-20T00:38:44;15.00;99.90
29917;DHT22;16786;49.466;11.068;2023-05-20T00:41:11;15.00;99.90
29917;DHT22;16786;49.466;11.068;2023-05-20T00:43:38;15.00;99.90
29917;DHT22;16786;49.466;11.068;2023-05-20T00:46:06;15.00;99.90
29917;DHT22;16786;49.466;11.068;2023-05-20T00:48:42;15.00;99.90
29917;DHT22;16786;49.466;11.068;2023-05-20T00:51:10;15.00;99.90
29917;DHT22;16786;49.466;11.068;2023-05-20T00:53:39;15.00;99.90
29917;DHT22;16786;49.466;11.068;2023-05-20T00:56:08;15.00;99.90
29917;DHT22;16786;49.466;11.068;2023-05-20T00:58:37;15.00;99.90
29917;DHT22;16786;49.466;11.068;2023-05-20T01:01:05;14.90;99.90
29917;DHT22;16786;49.466;11.068;2023-05-20T01:03:33;14.90;99.90
29917;DHT22;16786;49.466;11.068;2023-05-20T01:06:01;14.90;99.90
29917;DHT22;16786;49.466;11.068;2023-05-20T01:08:29;14.90;99.90
29917;DHT22;16786;49.466;11.068;2023-05-20T01:11:07;14.90;99.90
29917;DHT22;16786;49.466;11.068;2023-05-20T01:13:44;15.00;99.90
29917;DHT22;16786;49.466;11.068;2023-05-20T01:16:13;14.90;99.90
29917;DHT22;16786;49.466;11.068;2023-05-20T01:18:45;14.90;99.90
29917;DHT22;16786;49.466;11.068;2023-05-20T01:21:14;14.90;99.90
29917;DHT22;16786;49.466;11.068;2023-05-20T01:23:43;14.90;99.90
29917;DHT22;16786;49.466;11.068;2023-05-20T01:26:10;15.00;99.90
29917;DHT22;16786;49.466;11.068;2023-05-20T01:28:41;15.00;99.90
29917;DHT22;16786;49.466;11.068;2023-05-20T01:31:26;14.90;99.90
29917;DHT22;16786;49.466;11.068;2023-05-20T01:33:56;14.90;99.90
29917;DHT22;16786;49.466;11.068;2023-05-20T01:36:25;14.90;99.90
29917;DHT22;16786;49.466;11.068;2023-05-20T01:38:54;14.90;99.90
29917;DHT22;16786;49.466;11.068;2023-05-20T01:41:23;14.90;99.90
29917;DHT22;16786;49.466;11.068;2023-05-20T01:43:54;14.90;99.90
29917;DHT22;16786;49.466;11.068;2023-05-20T01:46:22;14.90;99.90
29917;DHT22;16786;49.466;11.068;2023-05-20T01:48:49;14.90;99.90
29917;DHT22;16786;49.466;11.068;2023-05-20T01:51:17;14.90;99.90
29917;DHT22;16786;49.466;11.068;2023-05-20T01:53:44;14.90;99.90
29917;DHT22;16786;49.466;11.068;2023-05-20T01:56:12;14.90;99.90
29917;DHT22;16786;49.466;11.068;2023-05-20T01:58:39;14.90;99.90
29917;DHT22;16786;49.466;11.068;2023-05-20T02:01:07;14.90;99.90
29917;DHT22;16786;49.466;11.068;2023-05-20T02:03:36;14.90;99.90
29917;DHT22;16786;49.466;11.068;2023-05-20T02:06:03;14.80;99.90
29917;DHT22;16786;49.466;11.068;2023-05-20T02:08:30;14.80;99.90
29917;DHT22;16786;49.466;11.068;2023-05-20T02:10:58;14.80;99.90
29917;DHT22;16786;49.466;11.068;2023-05-20T02:13:26;14.70;99.90
29917;DHT22;16786;49.466;11.068;2023-05-20T02:15:54;14.70;99.90
29917;DHT22;16786;49.466;11.068;2023-05-20T02:18:23;14.60;99.90
29917;DHT22;16786;49.466;11.068;2023-05-20T02:20:52;14.60;99.90
29917;DHT22;16786;49.466;11.068;2023-05-20T02:23:20;14.50;99.90
29917;DHT22;16786;49.466;11.068;2023-05-20T02:25:47;14.50;99.90
29917;DHT22;16786;49.466;11.068;2023-05-20T02:28:14;14.50;99.90
29917;DHT22;16786;49.466;11.068;2023-05-20T02:30:42;14.40;99.90
29917;DHT22;16786;49.466;11.068;2023-05-20T02:33:10;14.30;99.90
29917;DHT22;16786;49.466;11.068;2023-05-20T02:35:39;14.20;99.90
29917;DHT22;16786;49.466;11.068;2023-05-20T02:38:06;14.30;99.90
29917;DHT22;16786;49.466;11.068;2023-05-20T02:40:35;14.20;99.90
29917;DHT22;16786;49.466;11.068;2023-05-20T02:43:03;14.10;99.90
29917;DHT22;16786;49.466;11.068;2023-05-20T02:45:32;14.10;99.90
29917;DHT22;16786;49.466;11.068;2023-05-20T02:48:00;14.10;99.90
29917;DHT22;16786;49.466;11.068;2023-05-20T02:50:30;14.00;99.90
29917;DHT22;16786;49.466;11.068;2023-05-20T02:52:57;14.00;99.90
29917;DHT22;16786;49.466;11.068;2023-05-20T02:55:25;14.00;99.90
29917;DHT22;16786;49.466;11.068;2023-05-20T02:57:52;14.00;99.90
29917;DHT22;16786;49.466;11.068;2023-05-20T03:00:20;14.00;99.90
29917;DHT22;16786;49.466;11.068;2023-05-20T03:02:49;13.90;99.90
29917;DHT22;16786;49.466;11.068;2023-05-20T03:05:16;13.90;99.90
29917;DHT22;16786;49.466;11.068;2023-05-20T03:07:44;13.90;99.90
29917;DHT22;16786;49.466;11.068;2023-05-20T03:10:13;13.90;99.90
29917;DHT22;16786;49.466;11.068;2023-05-20T03:12:42;13.90;99.90
29917;DHT22;16786;49.466;11.068;2023-05-20T03:15:09;13.90;99.90
29917;DHT22;16786;49.466;11.068;2023-05-20T03:17:37;13.90;99.90
29917;DHT22;16786;49.466;11.068;2023-05-20T03:20:05;13.90;99.90
29917;DHT22;16786;49.466;11.068;2023-05-20T03:22:33;13.80;99.90
29917;DHT22;16786;49.466;11.068;2023-05-20T03:25:01;13.90;99.90
29917;DHT22;16786;49.466;11.068;2023-05-20T03:27:30;13.90;99.90
29917;DHT22;16786;49.466;11.068;2023-05-20T03:29:58;13.90;99.90
29917;DHT22;16786;49.466;11.068;2023-05-20T03:32:25;13.90;99.90
29917;DHT22;16786;49.466;11.068;2023-05-20T03:34:53;13.80;99.90
29917;DHT22;16786;49.466;11.068;2023-05-20T03:37:20;13.80;99.90
29917;DHT22;16786;49.466;11.068;2023-05-20T03:39:48;13.90;99.90
29917;DHT22;16786;49.466;11.068;2023-05-20T03:42:15;13.90;99.90
29917;DHT22;16786;49.466;11.068;2023-05-20T03:44:42;13.90;99.90
29917;DHT22;16786;49.466;11.068;2023-05-20T03:47:10;13.90;99.90
29917;DHT22;16786;49.466;11.068;2023-05-20T03:49:37;13.90;99.90
29917;DHT22;16786;49.466;11.068;2023-05-20T03:52:07;13.90;99.90
29917;DHT22;16786;49.466;11.068;2023-05-20T03:54:34;14.00;99.90
29917;DHT22;16786;49.466;11.068;2023-05-20T03:57:04;14.00;99.90
29917;DHT22;16786;49.466;11.068;2023-05-20T03:59:31;14.00;99.90
29917;DHT22;16786;49.466;11.068;2023-05-20T04:01:59;14.00;99.90
29917;DHT22;16786;49.466;11.068;2023-05-20T04:04:26;14.00;99.90
29917;DHT22;16786;49.466;11.068;2023-05-20T04:06:54;14.00;99.90
29917;DHT22;16786;49.466;11.068;2023-05-20T04:09:23;14.10;99.90
29917;DHT22;16786;49.466;11.068;2023-05-20T04:11:50;14.10;99.90
29917;DHT22;16786;49.466;11.068;2023-05-20T04:14:19;14.10;99.90
29917;DHT22;16786;49.466;11.068;2023-05-20T04:16:47;14.10;99.90
29917;DHT22;16786;49.466;11.068;2023-05-20T04:19:16;14.10;99.90
29917;DHT22;16786;49.466;11.068;2023-05-20T04:21:45;14.10;99.90
29917;DHT22;16786;49.466;11.068;2023-05-20T04:24:13;14.10;99.90
29917;DHT22;16786;49.466;11.068;2023-05-20T04:26:41;14.10;99.90
29917;DHT22;16786;49.466;11.068;2023-05-20T04:29:10;14.10;99.90
29917;DHT22;16786;49.466;11.068;2023-05-20T04:31:38;14.10;99.90
29917;DHT22;16786;49.466;11.068;2023-05-20T04:34:07;14.20;99.90
29917;DHT22;16786;49.466;11.068;2023-05-20T04:36:34;14.20;99.90
29917;DHT22;16786;49.466;11.068;2023-05-20T04:39:04;14.20;99.90
29917;DHT22;16786;49.466;11.068;2023-05-20T04:41:31;14.20;99.90
29917;DHT22;16786;49.466;11.068;2023-05-20T04:43:59;14.30;99.90
29917;DHT22;16786;49.466;11.068;2023-05-20T04:46:28;14.30;99.90
29917;DHT22;16786;49.466;11.068;2023-05-20T04:48:57;14.40;99.90
29917;DHT22;16786;49.466;11.068;2023-05-20T04:51:25;14.50;99.90
29917;DHT22;16786;49.466;11.068;2023-05-20T04:53:52;14.50;99.90
29917;DHT22;16786;49.466;11.068;2023-05-20T04:56:20;14.70;99.90
29917;DHT22;16786;49.466;11.068;2023-05-20T04:58:47;14.70;99.90
29917;DHT22;16786;49.466;11.068;2023-05-20T05:01:15;14.80;99.90
29917;DHT22;16786;49.466;11.068;2023-05-20T05:03:42;14.80;99.90
29917;DHT22;16786;49.466;11.068;2023-05-20T05:06:10;14.90;99.90
29917;DHT22;16786;49.466;11.068;2023-05-20T05:08:37;15.00;99.90
29917;DHT22;16786;49.466;11.068;2023-05-20T05:11:05;14.90;99.90
29917;DHT22;16786;49.466;11.068;2023-05-20T05:13:33;15.00;99.90
29917;DHT22;16786;49.466;11.068;2023-05-20T05:16:01;15.10;99.90
29917;DHT22;16786;49.466;11.068;2023-05-20T05:18:30;15.10;99.90
29917;DHT22;16786;49.466;11.068;2023-05-20T05:21:01;15.20;99.90
29917;DHT22;16786;49.466;11.068;2023-05-20T05:23:29;15.40;99.90
29917;DHT22;16786;49.466;11.068;2023-05-20T05:25:56;15.50;99.90
29917;DHT22;16786;49.466;11.068;2023-05-20T05:28:24;15.50;99.90
29917;DHT22;16786;49.466;11.068;2023-05-20T05:30:53;15.60;99.90
29917;DHT22;16786;49.466;11.068;2023-05-20T05:33:22;15.60;99.90
29917;DHT22;16786;49.466;11.068;2023-05-20T05:35:50;15.70;99.90
29917;DHT22;16786;49.466;11.068;2023-05-20T05:38:17;15.70;99.90
29917;DHT22;16786;49.466;11.068;2023-05-20T05:40:45;15.70;99.90
29917;DHT22;16786;49.466;11.068;2023-05-20T05:43:14;15.80;99.90
29917;DHT22;16786;49.466;11.068;2023-05-20T05:45:41;15.90;99.90
29917;DHT22;16786;49.466;11.068;2023-05-20T05:48:09;15.90;99.90
29917;DHT22;16786;49.466;11.068;2023-05-20T05:50:38;16.00;99.90
29917;DHT22;16786;49.466;11.068;2023-05-20T05:53:05;16.00;99.90
29917;DHT22;16786;49.466;11.068;2023-05-20T05:55:35;16.10;99.90
29917;DHT22;16786;49.466;11.068;2023-05-20T05:58:03;16.30;99.90
29917;DHT22;16786;49.466;11.068;2023-05-20T06:00:30;16.40;99.90
29917;DHT22;16786;49.466;11.068;2023-05-20T06:02:58;16.30;99.90
29917;DHT22;16786;49.466;11.068;2023-05-20T06:05:32;16.40;99.90
29917;DHT22;16786;49.466;11.068;2023-05-20T06:08:00;16.40;99.90
29917;DHT22;16786;49.466;11.068;2023-05-20T06:10:29;16.50;99.90
29917;DHT22;16786;49.466;11.068;2023-05-20T06:12:57;16.50;99.90
29917;DHT22;16786;49.466;11.068;2023-05-20T06:15:25;16.60;99.90
29917;DHT22;16786;49.466;11.068;2023-05-20T06:17:53;16.60;99.90
29917;DHT22;16786;49.466;11.068;2023-05-20T06:20:21;16.60;99.90
29917;DHT22;16786;49.466;11.068;2023-05-20T06:22:48;16.60;99.90
29917;DHT22;16786;49.466;11.068;2023-05-20T06:25:15;16.70;99.90
29917;DHT22;16786;49.466;11.068;2023-05-20T06:27:43;16.60;99.90
29917;DHT22;16786;49.466;11.068;2023-05-20T06:30:15;16.60;99.90
29917;DHT22;16786;49.466;11.068;2023-05-20T06:32:42;16.70;99.90
29917;DHT22;16786;49.466;11.068;2023-05-20T06:35:10;16.80;99.90
29917;DHT22;16786;49.466;11.068;2023-05-20T06:37:38;16.80;99.90
29917;DHT22;16786;49.466;11.068;2023-05-20T06:40:06;16.90;99.90
29917;DHT22;16786;49.466;11.068;2023-05-20T06:42:34;16.90;99.90
29917;DHT22;16786;49.466;11.068;2023-05-20T06:45:03;16.80;99.90
29917;DHT22;16786;49.466;11.068;2023-05-20T06:47:36;16.90;99.90
29917;DHT22;16786;49.466;11.068;2023-05-20T06:50:04;17.00;99.90
29917;DHT22;16786;49.466;11.068;2023-05-20T06:52:32;17.00;99.90
29917;DHT22;16786;49.466;11.068;2023-05-20T06:54:59;17.00;99.90
29917;DHT22;16786;49.466;11.068;2023-05-20T06:57:26;17.10;99.90
29917;DHT22;16786;49.466;11.068;2023-05-20T06:59:55;17.10;99.90
29917;DHT22;16786;49.466;11.068;2023-05-20T07:02:24;17.10;99.90
29917;DHT22;16786;49.466;11.068;2023-05-20T07:04:52;17.10;99.90
29917;DHT22;16786;49.466;11.068;2023-05-20T07:07:20;17.20;99.90
29917;DHT22;16786;49.466;11.068;2023-05-20T07:09:47;17.30;99.90
29917;DHT22;16786;49.466;11.068;2023-05-20T07:12:15;17.30;99.90
29917;DHT22;16786;49.466;11.068;2023-05-20T07:14:42;17.40;99.90
29917;DHT22;16786;49.466;11.068;2023-05-20T07:17:10;17.40;99.90
29917;DHT22;16786;49.466;11.068;2023-05-20T07:19:38;17.50;99.90
29917;DHT22;16786;49.466;11.068;2023-05-20T07:22:05;17.60;99.90
29917;DHT22;16786;49.466;11.068;2023-05-20T07:24:33;17.70;99.90
29917;DHT22;16786;49.466;11.068;2023-05-20T07:27:03;17.70;99.90
29917;DHT22;16786;49.466;11.068;2023-05-20T07:29:31;17.80;99.90
29917;DHT22;16786;49.466;11.068;2023-05-20T07:31:58;17.90;99.90
29917;DHT22;16786;49.466;11.068;2023-05-20T07:34:26;17.90;99.90
29917;DHT22;16786;49.466;11.068;2023-05-20T07:36:54;18.10;99.90
29917;DHT22;16786;49.466;11.068;2023-05-20T07:39:21;18.10;99.90
29917;DHT22;16786;49.466;11.068;2023-05-20T07:41:49;18.10;99.90
29917;DHT22;16786;49.466;11.068;2023-05-20T07:44:16;18.20;99.90
29917;DHT22;16786;49.466;11.068;2023-05-20T07:46:47;18.30;99.90
29917;DHT22;16786;49.466;11.068;2023-05-20T07:49:15;18.30;99.90
29917;DHT22;16786;49.466;11.068;2023-05-20T07:51:44;18.30;99.90
29917;DHT22;16786;49.466;11.068;2023-05-20T07:54:14;18.50;99.90
29917;DHT22;16786;49.466;11.068;2023-05-20T07:56:43;18.50;99.90
29917;DHT22;16786;49.466;11.068;2023-05-20T07:59:10;18.50;99.90
29917;DHT22;16786;49.466;11.068;2023-05-20T08:01:42;18.60;99.90
29917;DHT22;16786;49.466;11.068;2023-05-20T08:04:11;18.70;99.90
29917;DHT22;16786;49.466;11.068;2023-05-20T08:06:38;18.80;99.90
29917;DHT22;16786;49.466;11.068;2023-05-20T08:09:11;18.80;99.90
29917;DHT22;16786;49.466;11.068;2023-05-20T08:11:44;18.90;99.90
29917;DHT22;16786;49.466;11.068;2023-05-20T08:14:13;19.00;99.90
29917;DHT22;16786;49.466;11.068;2023-05-20T08:16:43;18.90;99.90
29917;DHT22;16786;49.466;11.068;2023-05-20T08:19:10;19.10;99.90
29917;DHT22;16786;49.466;11.068;2023-05-20T08:21:38;19.20;99.90
29917;DHT22;16786;49.466;11.068;2023-05-20T08:24:06;19.20;99.90
29917;DHT22;16786;49.466;11.068;2023-05-20T08:26:35;19.30;99.90
29917;DHT22;16786;49.466;11.068;2023-05-20T08:29:03;19.50;99.90
29917;DHT22;16786;49.466;11.068;2023-05-20T08:31:31;19.60;99.90
29917;DHT22;16786;49.466;11.068;2023-05-20T08:33:59;19.70;99.90
29917;DHT22;16786;49.466;11.068;2023-05-20T08:36:27;19.80;99.90
29917;DHT22;16786;49.466;11.068;2023-05-20T08:38:54;19.90;99.90
29917;DHT22;16786;49.466;11.068;2023-05-20T08:41:22;20.00;99.90
29917;DHT22;16786;49.466;11.068;2023-05-20T08:43:52;20.10;99.90
29917;DHT22;16786;49.466;11.068;2023-05-20T08:46:20;20.20;99.90
29917;DHT22;16786;49.466;11.068;2023-05-20T08:48:49;20.30;99.90
29917;DHT22;16786;49.466;11.068;2023-05-20T08:51:20;20.40;99.90
29917;DHT22;16786;49.466;11.068;2023-05-20T08:53:50;20.50;99.90
29917;DHT22;16786;49.466;11.068;2023-05-20T08:56:18;20.60;99.90
29917;DHT22;16786;49.466;11.068;2023-05-20T08:58:46;20.70;99.90
29917;DHT22;16786;49.466;11.068;2023-05-20T09:01:13;20.90;99.90
29917;DHT22;16786;49.466;11.068;2023-05-20T09:03:40;21.00;99.90
29917;DHT22;16786;49.466;11.068;2023-05-20T09:06:15;21.10;99.90
29917;DHT22;16786;49.466;11.068;2023-05-20T09:08:42;21.30;99.90
29917;DHT22;16786;49.466;11.068;2023-05-20T09:11:11;21.30;99.90
29917;DHT22;16786;49.466;11.068;2023-05-20T09:13:38;21.30;99.90
29917;DHT22;16786;49.466;11.068;2023-05-20T09:16:06;21.50;99.90
29917;DHT22;16786;49.466;11.068;2023-05-20T09:18:38;21.50;99.90
29917;DHT22;16786;49.466;11.068;2023-05-20T09:21:09;21.60;99.90
29917;DHT22;16786;49.466;11.068;2023-05-20T09:23:38;21.60;99.90
29917;DHT22;16786;49.466;11.068;2023-05-20T09:26:05;21.70;99.90
29917;DHT22;16786;49.466;11.068;2023-05-20T09:28:32;21.80;99.90
29917;DHT22;16786;49.466;11.068;2023-05-20T09:31:02;21.90;99.90
29917;DHT22;16786;49.466;11.068;2023-05-20T09:33:31;22.00;99.90
29917;DHT22;16786;49.466;11.068;2023-05-20T09:36:08;22.10;99.90
29917;DHT22;16786;49.466;11.068;2023-05-20T09:38:37;22.20;99.90
29917;DHT22;16786;49.466;11.068;2023-05-20T09:41:13;22.60;99.90
29917;DHT22;16786;49.466;11.068;2023-05-20T09:43:41;22.70;99.90
29917;DHT22;16786;49.466;11.068;2023-05-20T09:46:09;23.00;99.90
29917;DHT22;16786;49.466;11.068;2023-05-20T09:48:37;23.40;99.90
29917;DHT22;16786;49.466;11.068;2023-05-20T09:51:06;23.50;99.90
29917;DHT22;16786;49.466;11.068;2023-05-20T09:53:34;23.60;99.90
29917;DHT22;16786;49.466;11.068;2023-05-20T09:56:02;24.00;99.90
29917;DHT22;16786;49.466;11.068;2023-05-20T09:58:33;24.40;99.90
29917;DHT22;16786;49.466;11.068;2023-05-20T10:01:02;24.60;99.90
29917;DHT22;16786;49.466;11.068;2023-05-20T10:03:30;24.80;99.90
29917;DHT22;16786;49.466;11.068;2023-05-20T10:11:32;25.30;99.90
29917;DHT22;16786;49.466;11.068;2023-05-20T10:14:12;25.40;99.90
29917;DHT22;16786;49.466;11.068;2023-05-20T10:16:51;25.60;99.90
29917;DHT22;16786;49.466;11.068;2023-05-20T10:19:28;25.70;99.90
29917;DHT22;16786;49.466;11.068;2023-05-20T10:27:01;26.00;99.90
29917;DHT22;16786;49.466;11.068;2023-05-20T10:29:40;26.20;99.90
29917;DHT22;16786;49.466;11.068;2023-05-20T10:32:08;26.00;99.90
29917;DHT22;16786;49.466;11.068;2023-05-20T10:34:49;26.10;99.90
29917;DHT22;16786;49.466;11.068;2023-05-20T10:37:23;25.90;99.90
29917;DHT22;16786;49.466;11.068;2023-05-20T10:40:01;26.20;99.90
29917;DHT22;16786;49.466;11.068;2023-05-20T10:42:29;26.60;99.90
29917;DHT22;16786;49.466;11.068;2023-05-20T10:44:56;26.80;99.90
29917;DHT22;16786;49.466;11.068;2023-05-20T10:47:24;26.40;99.90
29917;DHT22;16786;49.466;11.068;2023-05-20T10:49:52;26.50;99.90
29917;DHT22;16786;49.466;11.068;2023-05-20T10:52:20;26.50;99.90
29917;DHT22;16786;49.466;11.068;2023-05-20T10:54:58;26.40;99.90
29917;DHT22;16786;49.466;11.068;2023-05-20T10:57:26;26.10;99.90
29917;DHT22;16786;49.466;11.068;2023-05-20T10:59:54;26.20;99.90
29917;DHT22;16786;49.466;11.068;2023-05-20T11:02:22;26.50;99.90
29917;DHT22;16786;49.466;11.068;2023-05-20T11:04:55;26.70;99.90
29917;DHT22;16786;49.466;11.068;2023-05-20T11:07:29;26.90;99.90
29917;DHT22;16786;49.466;11.068;2023-05-20T11:09:57;26.60;99.90
29917;DHT22;16786;49.466;11.068;2023-05-20T11:12:26;26.70;99.90
29917;DHT22;16786;49.466;11.068;2023-05-20T11:14:54;26.80;99.90
29917;DHT22;16786;49.466;11.068;2023-05-20T11:17:22;27.10;99.90
29917;DHT22;16786;49.466;11.068;2023-05-20T11:19:49;27.80;99.90
29917;DHT22;16786;49.466;11.068;2023-05-20T11:22:17;27.70;99.90
29917;DHT22;16786;49.466;11.068;2023-05-20T11:24:45;27.20;99.90
29917;DHT22;16786;49.466;11.068;2023-05-20T11:27:12;27.20;99.90
29917;DHT22;16786;49.466;11.068;2023-05-20T11:29:40;27.70;99.90
29917;DHT22;16786;49.466;11.068;2023-05-20T11:32:08;28.30;99.90
29917;DHT22;16786;49.466;11.068;2023-05-20T11:34:36;28.80;99.90
29917;DHT22;16786;49.466;11.068;2023-05-20T11:37:08;28.90;99.90
29917;DHT22;16786;49.466;11.068;2023-05-20T11:39:36;28.90;99.90
29917;DHT22;16786;49.466;11.068;2023-05-20T11:42:04;29.20;99.60
29917;DHT22;16786;49.466;11.068;2023-05-20T11:44:32;29.60;99.10
29917;DHT22;16786;49.466;11.068;2023-05-20T11:47:01;29.70;98.50
29917;DHT22;16786;49.466;11.068;2023-05-20T11:49:29;30.10;97.80
29917;DHT22;16786;49.466;11.068;2023-05-20T11:51:57;30.20;96.80
29917;DHT22;16786;49.466;11.068;2023-05-20T11:54:24;30.40;96.60
29917;DHT22;16786;49.466;11.068;2023-05-20T11:56:53;30.60;96.00
29917;DHT22;16786;49.466;11.068;2023-05-20T11:59:23;30.70;95.20
29917;DHT22;16786;49.466;11.068;2023-05-20T12:01:51;31.00;94.70
29917;DHT22;16786;49.466;11.068;2023-05-20T12:04:18;31.30;94.10
29917;DHT22;16786;49.466;11.068;2023-05-20T12:06:49;31.50;93.30
29917;DHT22;16786;49.466;11.068;2023-05-20T12:09:17;31.50;92.50
29917;DHT22;16786;49.466;11.068;2023-05-20T12:11:44;31.70;91.90
29917;DHT22;16786;49.466;11.068;2023-05-20T12:14:11;31.20;92.30
29917;DHT22;16786;49.466;11.068;2023-05-20T12:16:39;31.80;91.70
29917;DHT22;16786;49.466;11.068;2023-05-20T12:19:06;32.30;91.40
29917;DHT22;16786;49.466;11.068;2023-05-20T12:21:35;32.10;90.60
29917;DHT22;16786;49.466;11.068;2023-05-20T12:24:02;32.20;90.20
29917;DHT22;16786;49.466;11.068;2023-05-20T12:26:33;32.60;90.40
29917;DHT22;16786;49.466;11.068;2023-05-20T12:29:01;32.60;90.10
29917;DHT22;16786;49.466;11.068;2023-05-20T12:31:28;32.50;88.70
29917;DHT22;16786;49.466;11.068;2023-05-20T12:34:00;32.50;88.30
29917;DHT22;16786;49.466;11.068;2023-05-20T12:36:27;32.30;88.20
29917;DHT22;16786;49.466;11.068;2023-05-20T12:38:55;32.30;87.20
29917;DHT22;16786;49.466;11.068;2023-05-20T12:41:22;32.00;88.60
29917;DHT22;16786;49.466;11.068;2023-05-20T12:43:50;31.90;87.90
29917;DHT22;16786;49.466;11.068;2023-05-20T12:46:17;32.10;87.90
29917;DHT22;16786;49.466;11.068;2023-05-20T12:48:44;31.90;87.20
29917;DHT22;16786;49.466;11.068;2023-05-20T12:51:12;30.90;87.70
29917;DHT22;16786;49.466;11.068;2023-05-20T12:53:39;30.60;90.00
29917;DHT22;16786;49.466;11.068;2023-05-20T12:56:07;31.50;89.00
29917;DHT22;16786;49.466;11.068;2023-05-20T12:58:34;32.60;88.30
29917;DHT22;16786;49.466;11.068;2023-05-20T13:01:02;33.20;86.50
29917;DHT22;16786;49.466;11.068;2023-05-20T13:03:29;33.50;85.00
29917;DHT22;16786;49.466;11.068;2023-05-20T13:05:57;33.00;84.10
29917;DHT22;16786;49.466;11.068;2023-05-20T13:08:25;31.90;84.60
29917;DHT22;16786;49.466;11.068;2023-05-20T13:10:54;31.50;86.80
29917;DHT22;16786;49.466;11.068;2023-05-20T13:13:23;31.70;86.50
29917;DHT22;16786;49.466;11.068;2023-05-20T13:15:50;33.00;84.60
29917;DHT22;16786;49.466;11.068;2023-05-20T13:18:17;33.50;82.20
29917;DHT22;16786;49.466;11.068;2023-05-20T13:20:45;33.70;82.20
29917;DHT22;16786;49.466;11.068;2023-05-20T13:23:12;33.20;81.50
29917;DHT22;16786;49.466;11.068;2023-05-20T13:25:40;32.70;82.40
29917;DHT22;16786;49.466;11.068;2023-05-20T13:28:07;32.40;83.10
29917;DHT22;16786;49.466;11.068;2023-05-20T13:30:35;32.10;82.90
29917;DHT22;16786;49.466;11.068;2023-05-20T13:33:03;31.60;83.90
29917;DHT22;16786;49.466;11.068;2023-05-20T13:35:31;31.20;85.00
29917;DHT22;16786;49.466;11.068;2023-05-20T13:37:58;30.90;85.80
29917;DHT22;16786;49.466;11.068;2023-05-20T13:40:25;30.00;85.90
29917;DHT22;16786;49.466;11.068;2023-05-20T13:42:53;29.20;87.50
29917;DHT22;16786;49.466;11.068;2023-05-20T13:45:20;29.30;88.80
29917;DHT22;16786;49.466;11.068;2023-05-20T13:47:49;29.60;88.70
29917;DHT22;16786;49.466;11.068;2023-05-20T13:50:16;29.90;88.30
29917;DHT22;16786;49.466;11.068;2023-05-20T13:52:44;30.10;88.60
29917;DHT22;16786;49.466;11.068;2023-05-20T13:55:11;30.40;87.50
29917;DHT22;16786;49.466;11.068;2023-05-20T13:57:39;30.40;87.20
29917;DHT22;16786;49.466;11.068;2023-05-20T14:00:07;30.70;86.70
29917;DHT22;16786;49.466;11.068;2023-05-20T14:02:35;30.80;87.00
29917;DHT22;16786;49.466;11.068;2023-05-20T14:05:03;30.20;86.90
29917;DHT22;16786;49.466;11.068;2023-05-20T14:07:30;30.20;87.50
29917;DHT22;16786;49.466;11.068;2023-05-20T14:09:58;30.20;87.80
29917;DHT22;16786;49.466;11.068;2023-05-20T14:12:25;30.10;87.60
29917;DHT22;16786;49.466;11.068;2023-05-20T14:14:52;29.70;88.10
29917;DHT22;16786;49.466;11.068;2023-05-20T14:17:20;29.70;89.20
29917;DHT22;16786;49.466;11.068;2023-05-20T14:19:47;29.50;89.50
29917;DHT22;16786;49.466;11.068;2023-05-20T14:22:14;29.20;89.50
29917;DHT22;16786;49.466;11.068;2023-05-20T14:24:42;29.20;90.00
29917;DHT22;16786;49.466;11.068;2023-05-20T14:27:09;29.10;90.00
29917;DHT22;16786;49.466;11.068;2023-05-20T14:29:37;29.00;90.00
29917;DHT22;16786;49.466;11.068;2023-05-20T14:32:05;28.90;90.20
29917;DHT22;16786;49.466;11.068;2023-05-20T14:34:32;28.70;90.30
29917;DHT22;16786;49.466;11.068;2023-05-20T14:36:59;28.50;90.90
29917;DHT22;16786;49.466;11.068;2023-05-20T14:39:33;28.60;90.80
29917;DHT22;16786;49.466;11.068;2023-05-20T14:42:01;28.60;90.90
29917;DHT22;16786;49.466;11.068;2023-05-20T14:44:29;28.70;90.60
29917;DHT22;16786;49.466;11.068;2023-05-20T14:46:57;28.80;90.80
29917;DHT22;16786;49.466;11.068;2023-05-20T14:49:24;28.80;90.60
29917;DHT22;16786;49.466;11.068;2023-05-20T14:51:52;28.90;90.50
29917;DHT22;16786;49.466;11.068;2023-05-20T14:54:19;29.20;90.20
29917;DHT22;16786;49.466;11.068;2023-05-20T14:56:51;29.30;89.70
29917;DHT22;16786;49.466;11.068;2023-05-20T14:59:18;29.10;90.10
29917;DHT22;16786;49.466;11.068;2023-05-20T15:01:45;30.60;88.00
29917;DHT22;16786;49.466;11.068;2023-05-20T15:04:13;31.80;86.20
29917;DHT22;16786;49.466;11.068;2023-05-20T15:06:40;32.70;83.70
29917;DHT22;16786;49.466;11.068;2023-05-20T15:09:08;33.80;80.80
29917;DHT22;16786;49.466;11.068;2023-05-20T15:11:36;35.10;78.60
29917;DHT22;16786;49.466;11.068;2023-05-20T15:14:03;36.10;76.40
29917;DHT22;16786;49.466;11.068;2023-05-20T15:16:30;37.20;74.00
29917;DHT22;16786;49.466;11.068;2023-05-20T15:18:58;38.40;71.10
29917;DHT22;16786;49.466;11.068;2023-05-20T15:21:25;40.30;66.00
29917;DHT22;16786;49.466;11.068;2023-05-20T15:23:53;40.70;62.40
29917;DHT22;16786;49.466;11.068;2023-05-20T15:26:20;40.00;61.40
29917;DHT22;16786;49.466;11.068;2023-05-20T15:28:47;40.80;58.50
29917;DHT22;16786;49.466;11.068;2023-05-20T15:31:15;41.40;56.90
29917;DHT22;16786;49.466;11.068;2023-05-20T15:33:43;42.00;55.50